PWSweather.com
Personal Weather Stations
Station Observations
KVAGLENALL
West Henrico, Glen Allen, VA 23060-6503

West HenricoGlen Allen, VA 23060-6503

Lat: 37.6554, Lon: -77.5693

Elevation: 273

Station Type: Davis Vantage Pro II

Latest ConditionsUpdated 9:15:16 PM EDT Friday, Sep 30, 2016
Currently Today's Max Today's Min Today's Average
Temperature 69.9°F21.1°C 70.1°F21.2°C 69.9°F21.1°C 70.0°F21.1°C
Dew Point 69.6°F20.9°C 69.8°F21.0°C 69.6°F20.9°C 69.7°F20.9°C
Winds 9.0 mph E14.5 kmh E 9.0 mph E14.5 kmh E - 3.7 mph 6.0 kmh
Wind Gusts 11.1 mph17.9 kmh 11.1 mph17.9 kmh - -
Humidity 99% 99% 99% 99%
Pressure 30.06 in1017.9 mb 30.06 in1017.9 mb 30.05 in1017.6 mb -
Hour Temp Dew Point Humidity Winds Wind Gusts Pressure Precip Precip Rate Daily Precip Total
09:15 PM 69.9°F21.1°C 69.6°F20.9°C 99% 9.0 mph E14.5 kmh E 11.1 mph17.9 kmh 30.06 in1017.9 mb 0.07 in1.8 mm 0.08 in2.0 mm 0.24 in6.1 mm
09:00 PM 69.9°F21.1°C 69.6°F20.9°C 99% Calm Calm 3.0 mph4.8 kmh 30.06 in1017.9 mb 0.05 in1.3 mm 0.03 in0.8 mm 0.22 in5.6 mm
08:45 PM 70.1°F21.2°C 69.8°F21.0°C 99% Calm Calm 3.0 mph4.8 kmh 30.05 in1017.6 mb 0.03 in0.8 mm 0.12 in3.0 mm 0.20 in5.1 mm
08:30 PM 70.1°F21.2°C 69.8°F21.0°C 99% 1.0 mph NE1.6 kmh NE 7.1 mph11.4 kmh 30.05 in1017.6 mb 0.00 in0.0 mm 0.00 in0.0 mm 0.17 in4.3 mm
08:15 PM 70.1°F21.2°C 69.8°F21.0°C 99% 7.0 mph E11.3 kmh E 10.1 mph16.3 kmh 30.05 in1017.6 mb 0.00 in0.0 mm 0.00 in0.0 mm 0.17 in4.3 mm
08:00 PM 70.1°F21.2°C 69.8°F21.0°C 99% 5.0 mph ESE8.0 kmh ESE 5.1 mph8.2 kmh 30.05 in1017.6 mb 0.00 in0.0 mm 0.00 in0.0 mm 0.17 in4.3 mm
07:45 PM 70.1°F21.2°C 69.8°F21.0°C 99% Calm Calm 2.0 mph3.2 kmh 30.05 in1017.6 mb 0.00 in0.0 mm 0.00 in0.0 mm 0.17 in4.3 mm
07:30 PM 70.1°F21.2°C 69.8°F21.0°C 99% 1.0 mph E1.6 kmh E 2.0 mph3.2 kmh 30.05 in1017.6 mb 0.00 in0.0 mm 0.00 in0.0 mm 0.17 in4.3 mm
07:15 PM 70.1°F21.2°C 69.8°F21.0°C 99% Calm Calm 5.1 mph8.2 kmh 30.05 in1017.6 mb 0.01 in0.3 mm 0.00 in0.0 mm 0.17 in4.3 mm
07:00 PM 69.9°F21.1°C 69.6°F20.9°C 99% 5.0 mph NE8.0 kmh NE 5.1 mph8.2 kmh 30.06 in1017.9 mb 0.10 in2.5 mm 0.00 in0.0 mm 0.17 in4.3 mm
06:45 PM 69.9°F21.1°C 69.6°F20.9°C 99% Calm Calm 6.1 mph9.8 kmh 30.06 in1017.9 mb 0.12 in3.0 mm 0.00 in0.0 mm 0.17 in4.3 mm
06:30 PM 69.9°F21.1°C 69.6°F20.9°C 99% 3.0 mph NE4.8 kmh NE 6.1 mph9.8 kmh 30.06 in1017.9 mb 0.13 in3.3 mm 0.00 in0.0 mm 0.17 in4.3 mm
06:15 PM 70.1°F21.2°C 69.5°F20.8°C 98% 1.0 mph NE1.6 kmh NE 6.1 mph9.8 kmh 30.06 in1017.9 mb 0.13 in3.3 mm 0.04 in1.0 mm 0.17 in4.3 mm
06:00 PM 70.1°F21.2°C 69.5°F20.8°C 98% 3.0 mph NE4.8 kmh NE 7.1 mph11.4 kmh 30.05 in1017.6 mb 0.12 in3.0 mm 0.00 in0.0 mm 0.16 in4.1 mm
05:45 PM 69.9°F21.1°C 69.3°F20.7°C 98% Calm Calm 2.0 mph3.2 kmh 30.06 in1017.9 mb 0.12 in3.0 mm 0.00 in0.0 mm 0.16 in4.1 mm
05:30 PM 69.9°F21.1°C 69.3°F20.7°C 98% 3.0 mph NNE4.8 kmh NNE 7.1 mph11.4 kmh 30.05 in1017.6 mb 0.12 in3.0 mm 0.04 in1.0 mm 0.16 in4.1 mm
05:15 PM 70.1°F21.2°C 69.5°F20.8°C 98% Calm Calm 4.0 mph6.4 kmh 30.06 in1017.9 mb 0.11 in2.8 mm 0.16 in4.1 mm 0.15 in3.8 mm
05:00 PM 70.3°F21.3°C 69.7°F20.9°C 98% 3.0 mph E4.8 kmh E 5.1 mph8.2 kmh 30.05 in1017.6 mb 0.07 in1.8 mm 0.07 in1.8 mm 0.11 in2.8 mm
04:45 PM 70.4°F21.3°C 69.5°F20.8°C 97% 2.0 mph E3.2 kmh E 8.1 mph13.0 kmh 30.05 in1017.6 mb 0.02 in0.5 mm 0.04 in1.0 mm 0.06 in1.5 mm
04:30 PM 70.8°F21.6°C 69.9°F21.1°C 97% 7.0 mph NNE11.3 kmh NNE 7.1 mph11.4 kmh 30.05 in1017.6 mb 0.01 in0.3 mm 0.04 in1.0 mm 0.05 in1.3 mm
04:15 PM 71.1°F21.7°C 70.2°F21.2°C 97% 4.0 mph NNE6.4 kmh NNE 8.1 mph13.0 kmh 30.05 in1017.6 mb 0.00 in0.0 mm 0.00 in0.0 mm 0.04 in1.0 mm
04:00 PM 71.3°F21.8°C 70.4°F21.3°C 97% 7.0 mph NNE11.3 kmh NNE 8.1 mph13.0 kmh 30.04 in1017.3 mb 0.00 in0.0 mm 0.00 in0.0 mm 0.04 in1.0 mm
03:45 PM 71.3°F21.8°C 70.4°F21.3°C 97% 2.0 mph NE3.2 kmh NE 9.1 mph14.6 kmh 30.04 in1017.3 mb 0.00 in0.0 mm 0.00 in0.0 mm 0.04 in1.0 mm
03:30 PM 71.3°F21.8°C 70.4°F21.3°C 97% 4.0 mph NE6.4 kmh NE 10.1 mph16.3 kmh 30.03 in1016.9 mb 0.00 in0.0 mm 0.00 in0.0 mm 0.04 in1.0 mm
03:15 PM 71.3°F21.8°C 70.4°F21.3°C 97% 5.0 mph NNE8.0 kmh NNE 7.1 mph11.4 kmh 30.04 in1017.3 mb 0.00 in0.0 mm 0.00 in0.0 mm 0.04 in1.0 mm
03:00 PM 71.3°F21.8°C 70.4°F21.3°C 97% Calm Calm 5.1 mph8.2 kmh 30.05 in1017.6 mb 0.00 in0.0 mm 0.00 in0.0 mm 0.04 in1.0 mm
02:45 PM 71.1°F21.7°C 69.9°F21.1°C 96% 4.0 mph NE6.4 kmh NE 6.1 mph9.8 kmh 30.06 in1017.9 mb 0.00 in0.0 mm 0.00 in0.0 mm 0.04 in1.0 mm
02:30 PM 71.3°F21.8°C 70.1°F21.2°C 96% 3.0 mph E4.8 kmh E 6.1 mph9.8 kmh 30.06 in1017.9 mb 0.00 in0.0 mm 0.00 in0.0 mm 0.04 in1.0 mm
02:15 PM 71.3°F21.8°C 70.1°F21.2°C 96% 6.0 mph ESE9.7 kmh ESE 9.1 mph14.6 kmh 30.07 in1018.3 mb 0.00 in0.0 mm 0.00 in0.0 mm 0.04 in1.0 mm
02:00 PM 71.3°F21.8°C 69.8°F21.0°C 95% Calm Calm 2.0 mph3.2 kmh 30.08 in1018.6 mb 0.00 in0.0 mm 0.00 in0.0 mm 0.04 in1.0 mm
01:45 PM 71.4°F21.9°C 69.9°F21.1°C 95% 5.0 mph NE8.0 kmh NE 5.1 mph8.2 kmh 30.08 in1018.6 mb 0.00 in0.0 mm 0.00 in0.0 mm 0.04 in1.0 mm
01:30 PM 71.4°F21.9°C 69.9°F21.1°C 95% Calm Calm 4.0 mph6.4 kmh 30.10 in1019.3 mb 0.00 in0.0 mm 0.00 in0.0 mm 0.04 in1.0 mm
01:15 PM 71.4°F21.9°C 69.9°F21.1°C 95% Calm Calm 5.1 mph8.2 kmh 30.10 in1019.3 mb 0.00 in0.0 mm 0.00 in0.0 mm 0.04 in1.0 mm
01:00 PM 71.3°F21.8°C 70.1°F21.2°C 96% 1.0 mph ENE1.6 kmh ENE 6.1 mph9.8 kmh 30.09 in1019.0 mb 0.00 in0.0 mm 0.00 in0.0 mm 0.04 in1.0 mm
12:45 PM 70.9°F21.6°C 69.7°F20.9°C 96% 2.0 mph E3.2 kmh E 5.1 mph8.2 kmh 30.10 in1019.3 mb 0.00 in0.0 mm 0.00 in0.0 mm 0.04 in1.0 mm
12:30 PM 70.6°F21.4°C 69.7°F20.9°C 97% Calm Calm 2.0 mph3.2 kmh 30.09 in1019.0 mb 0.00 in0.0 mm 0.00 in0.0 mm 0.04 in1.0 mm
12:15 PM 69.9°F21.1°C 69.3°F20.7°C 98% 1.0 mph NNE1.6 kmh NNE 5.1 mph8.2 kmh 30.10 in1019.3 mb 0.00 in0.0 mm 0.00 in0.0 mm 0.04 in1.0 mm
12:00 PM 69.4°F20.8°C 68.8°F20.4°C 98% Calm Calm 4.0 mph6.4 kmh 30.10 in1019.3 mb 0.00 in0.0 mm 0.00 in0.0 mm 0.04 in1.0 mm
11:45 AM 69.0°F20.6°C 68.5°F20.3°C 98% 2.0 mph E3.2 kmh E 6.1 mph9.8 kmh 30.10 in1019.3 mb 0.00 in0.0 mm 0.00 in0.0 mm 0.04 in1.0 mm
11:30 AM 68.8°F20.4°C 68.3°F20.2°C 98% Calm Calm -- 30.10 in1019.3 mb 0.00 in0.0 mm 0.00 in0.0 mm 0.04 in1.0 mm
11:15 AM 68.5°F20.3°C 68.0°F20.0°C 98% 1.0 mph E1.6 kmh E 5.1 mph8.2 kmh 30.11 in1019.6 mb 0.00 in0.0 mm 0.00 in0.0 mm 0.04 in1.0 mm
11:00 AM 68.3°F20.2°C 68.1°F20.1°C 99% 8.0 mph E12.9 kmh E 9.1 mph14.6 kmh 30.11 in1019.6 mb 0.00 in0.0 mm 0.00 in0.0 mm 0.04 in1.0 mm
10:45 AM 68.0°F20.0°C 67.8°F19.9°C 99% 2.0 mph SE3.2 kmh SE 7.1 mph11.4 kmh 30.11 in1019.6 mb 0.00 in0.0 mm 0.00 in0.0 mm 0.04 in1.0 mm
10:30 AM 67.7°F19.8°C 67.5°F19.7°C 99% 4.0 mph ESE6.4 kmh ESE 9.1 mph14.6 kmh 30.11 in1019.6 mb 0.00 in0.0 mm 0.00 in0.0 mm 0.04 in1.0 mm
10:15 AM 67.7°F19.8°C 67.5°F19.7°C 99% Calm Calm 7.1 mph11.4 kmh 30.10 in1019.3 mb 0.00 in0.0 mm 0.00 in0.0 mm 0.04 in1.0 mm
10:00 AM 67.2°F19.6°C 67.0°F19.4°C 99% 5.0 mph NNE8.0 kmh NNE 7.1 mph11.4 kmh 30.09 in1019.0 mb 0.00 in0.0 mm 0.00 in0.0 mm 0.04 in1.0 mm
09:45 AM 66.7°F19.3°C 66.5°F19.2°C 99% 4.0 mph NNE6.4 kmh NNE 15.1 mph24.3 kmh 30.10 in1019.3 mb 0.00 in0.0 mm 0.00 in0.0 mm 0.04 in1.0 mm
09:30 AM 66.7°F19.3°C 66.5°F19.2°C 99% 4.0 mph E6.4 kmh E 8.1 mph13.0 kmh 30.10 in1019.3 mb 0.00 in0.0 mm 0.00 in0.0 mm 0.04 in1.0 mm
09:15 AM 66.4°F19.1°C 66.1°F18.9°C 99% 4.0 mph E6.4 kmh E 6.1 mph9.8 kmh 30.10 in1019.3 mb 0.00 in0.0 mm 0.00 in0.0 mm 0.04 in1.0 mm
09:00 AM 66.0°F18.9°C 65.7°F18.7°C 99% Calm Calm 4.0 mph6.4 kmh 30.10 in1019.3 mb 0.00 in0.0 mm 0.00 in0.0 mm 0.04 in1.0 mm
08:45 AM 65.9°F18.8°C 65.6°F18.7°C 99% 1.0 mph NNE1.6 kmh NNE 3.0 mph4.8 kmh 30.10 in1019.3 mb 0.00 in0.0 mm 0.00 in0.0 mm 0.04 in1.0 mm
08:30 AM 65.9°F18.8°C 65.6°F18.7°C 99% 6.0 mph E9.7 kmh E 11.1 mph17.9 kmh 30.09 in1019.0 mb 0.00 in0.0 mm 0.00 in0.0 mm 0.04 in1.0 mm
08:15 AM 65.9°F18.8°C 65.6°F18.7°C 99% 5.0 mph NE8.0 kmh NE 9.1 mph14.6 kmh 30.09 in1019.0 mb 0.00 in0.0 mm 0.00 in0.0 mm 0.04 in1.0 mm
08:00 AM 65.9°F18.8°C 65.6°F18.7°C 99% Calm Calm 4.0 mph6.4 kmh 30.09 in1019.0 mb 0.00 in0.0 mm 0.00 in0.0 mm 0.04 in1.0 mm
07:45 AM 66.0°F18.9°C 65.7°F18.7°C 99% Calm Calm 4.0 mph6.4 kmh 30.09 in1019.0 mb 0.00 in0.0 mm 0.00 in0.0 mm 0.04 in1.0 mm
07:30 AM 66.0°F18.9°C 65.7°F18.7°C 99% 4.0 mph ESE6.4 kmh ESE 8.1 mph13.0 kmh 30.08 in1018.6 mb 0.00 in0.0 mm 0.00 in0.0 mm 0.04 in1.0 mm
07:15 AM 66.2°F19.0°C 65.9°F18.8°C 99% 3.0 mph E4.8 kmh E 5.1 mph8.2 kmh 30.08 in1018.6 mb 0.00 in0.0 mm 0.00 in0.0 mm 0.04 in1.0 mm
07:00 AM 66.2°F19.0°C 65.9°F18.8°C 99% 3.0 mph E4.8 kmh E 9.1 mph14.6 kmh 30.08 in1018.6 mb 0.00 in0.0 mm 0.00 in0.0 mm 0.04 in1.0 mm
06:45 AM 66.5°F19.2°C 66.3°F19.1°C 99% 12.0 mph NNE19.3 kmh NNE 12.1 mph19.5 kmh 30.08 in1018.6 mb 0.00 in0.0 mm 0.00 in0.0 mm 0.04 in1.0 mm
06:30 AM 66.7°F19.3°C 66.5°F19.2°C 99% Calm Calm 5.1 mph8.2 kmh 30.08 in1018.6 mb 0.00 in0.0 mm 0.00 in0.0 mm 0.04 in1.0 mm
06:15 AM 66.8°F19.3°C 66.6°F19.2°C 99% 5.0 mph N8.0 kmh N 5.1 mph8.2 kmh 30.07 in1018.3 mb 0.00 in0.0 mm 0.00 in0.0 mm 0.04 in1.0 mm
06:00 AM 67.0°F19.4°C 66.8°F19.3°C 99% 4.0 mph NE6.4 kmh NE 9.1 mph14.6 kmh 30.07 in1018.3 mb 0.00 in0.0 mm 0.00 in0.0 mm 0.04 in1.0 mm
05:45 AM 67.0°F19.4°C 66.8°F19.3°C 99% 11.0 mph ENE17.7 kmh ENE 11.1 mph17.9 kmh 30.07 in1018.3 mb 0.00 in0.0 mm 0.00 in0.0 mm 0.04 in1.0 mm
05:30 AM 67.2°F19.6°C 67.0°F19.4°C 99% 7.0 mph NE11.3 kmh NE 7.1 mph11.4 kmh 30.07 in1018.3 mb 0.00 in0.0 mm 0.00 in0.0 mm 0.04 in1.0 mm
05:15 AM 67.2°F19.6°C 67.0°F19.4°C 99% Calm Calm 3.0 mph4.8 kmh 30.07 in1018.3 mb 0.00 in0.0 mm 0.00 in0.0 mm 0.04 in1.0 mm
05:00 AM 67.2°F19.6°C 67.0°F19.4°C 99% 2.0 mph NE3.2 kmh NE 6.1 mph9.8 kmh 30.07 in1018.3 mb 0.01 in0.3 mm 0.00 in0.0 mm 0.04 in1.0 mm
04:45 AM 67.3°F19.6°C 67.1°F19.5°C 99% 5.0 mph NNE8.0 kmh NNE 7.1 mph11.4 kmh 30.07 in1018.3 mb 0.01 in0.3 mm 0.00 in0.0 mm 0.04 in1.0 mm
04:30 AM 67.2°F19.6°C 67.0°F19.4°C 99% 3.0 mph N4.8 kmh N 9.1 mph14.6 kmh 30.07 in1018.3 mb 0.01 in0.3 mm 0.00 in0.0 mm 0.04 in1.0 mm
04:15 AM 67.2°F19.6°C 67.0°F19.4°C 99% 2.0 mph NNE3.2 kmh NNE 4.0 mph6.4 kmh 30.06 in1017.9 mb 0.01 in0.3 mm 0.04 in1.0 mm 0.04 in1.0 mm
04:00 AM 67.2°F19.6°C 67.0°F19.4°C 99% 3.0 mph ENE4.8 kmh ENE 4.0 mph6.4 kmh 30.06 in1017.9 mb 0.00 in0.0 mm 0.00 in0.0 mm 0.03 in0.8 mm
03:45 AM 67.2°F19.6°C 67.0°F19.4°C 99% 1.0 mph NE1.6 kmh NE 5.1 mph8.2 kmh 30.06 in1017.9 mb 0.00 in0.0 mm 0.00 in0.0 mm 0.03 in0.8 mm
03:30 AM 67.2°F19.6°C 67.0°F19.4°C 99% 4.0 mph NE6.4 kmh NE 5.1 mph8.2 kmh 30.06 in1017.9 mb 0.00 in0.0 mm 0.00 in0.0 mm 0.03 in0.8 mm
03:15 AM 67.0°F19.4°C 66.8°F19.3°C 99% 1.0 mph NNE1.6 kmh NNE 5.1 mph8.2 kmh 30.06 in1017.9 mb 0.00 in0.0 mm 0.00 in0.0 mm 0.03 in0.8 mm
03:00 AM 67.0°F19.4°C 66.8°F19.3°C 99% 5.0 mph NNE8.0 kmh NNE 5.1 mph8.2 kmh 30.06 in1017.9 mb 0.00 in0.0 mm 0.00 in0.0 mm 0.03 in0.8 mm
02:45 AM 67.0°F19.4°C 66.8°F19.3°C 99% 7.0 mph NNE11.3 kmh NNE 11.1 mph17.9 kmh 30.06 in1017.9 mb 0.00 in0.0 mm 0.00 in0.0 mm 0.03 in0.8 mm
02:30 AM 67.2°F19.6°C 67.0°F19.4°C 99% 3.0 mph N4.8 kmh N 7.1 mph11.4 kmh 30.06 in1017.9 mb 0.00 in0.0 mm 0.00 in0.0 mm 0.03 in0.8 mm
02:15 AM 67.2°F19.6°C 67.0°F19.4°C 99% 4.0 mph E6.4 kmh E 4.0 mph6.4 kmh 30.06 in1017.9 mb 0.01 in0.3 mm 0.00 in0.0 mm 0.03 in0.8 mm
02:00 AM 67.3°F19.6°C 67.1°F19.5°C 99% 5.0 mph ESE8.0 kmh ESE 6.1 mph9.8 kmh 30.07 in1018.3 mb 0.01 in0.3 mm 0.00 in0.0 mm 0.03 in0.8 mm
01:45 AM 67.3°F19.6°C 67.1°F19.5°C 99% 2.0 mph N3.2 kmh N 7.1 mph11.4 kmh 30.06 in1017.9 mb 0.02 in0.5 mm 0.00 in0.0 mm 0.03 in0.8 mm
01:30 AM 67.5°F19.7°C 67.3°F19.6°C 99% 2.0 mph NNE3.2 kmh NNE 4.0 mph6.4 kmh 30.07 in1018.3 mb 0.02 in0.5 mm 0.04 in1.0 mm 0.03 in0.8 mm
01:15 AM 67.7°F19.8°C 67.5°F19.7°C 99% 5.0 mph N8.0 kmh N 5.1 mph8.2 kmh 30.07 in1018.3 mb 0.01 in0.3 mm 0.00 in0.0 mm 0.02 in0.5 mm
01:00 AM 67.7°F19.8°C 67.5°F19.7°C 99% 2.0 mph E3.2 kmh E 7.1 mph11.4 kmh 30.07 in1018.3 mb 0.01 in0.3 mm 0.00 in0.0 mm 0.02 in0.5 mm
12:45 AM 67.7°F19.8°C 67.5°F19.7°C 99% Calm Calm 3.0 mph4.8 kmh 30.07 in1018.3 mb 0.01 in0.3 mm 0.00 in0.0 mm 0.02 in0.5 mm
12:30 AM 67.7°F19.8°C 67.5°F19.7°C 99% Calm Calm 7.1 mph11.4 kmh 30.07 in1018.3 mb 0.02 in0.5 mm 0.00 in0.0 mm 0.02 in0.5 mm
12:15 AM 67.7°F19.8°C 67.5°F19.7°C 99% 5.0 mph E8.0 kmh E 6.1 mph9.8 kmh 30.08 in1018.6 mb 0.02 in0.5 mm 0.00 in0.0 mm 0.02 in0.5 mm
12:00 AM 67.8°F19.9°C 67.3°F19.6°C 98% 4.0 mph ENE6.4 kmh ENE 6.1 mph9.8 kmh 30.08 in1018.6 mb 0.02 in0.5 mm 0.00 in0.0 mm 0.02 in0.5 mm